Terminal Aerodrome Forecast
Issued by NWS

Current Version | Previous Version | Text Only | Print | Product List | Glossary Off
Versions: 1 2 3 4 5 6 7 8 9 10 11 12 13 14 15 16 17 18 19 20 21 22 23 24

407
FTUS41 KRLX 180902 AAA
TAFCKB
TAF AMD
KCKB 180902Z 1809/1906 27008KT P6SM BKN025 OVC040
     FM181100 27008KT 6SM -RADZ OVC015
     FM181500 28008G15KT P6SM OVC015
     FM182200 26005KT P6SM BKN015=

USA.gov is the U.S. government's official web portal to all federal, state and local government web resources and services.